Time;durP1;ratioP1;P1;durP2;ratioP2;P2;SDS_P1;SDS_P2;PMS_P1;PMS_P2;Temp;Humidity;BMP_temperature;BMP_pressure;BME280_temperature;BME280_humidity;BME280_pressure;Samples;Min_cycle;Max_cycle;Signal;HPM_P1;HPM_P2
2023/03/20 00:01:58;;;;;;;16.15;9.75;;;;;;;7.48;100.00;101982.56;5132436;28;20371;-81
2023/03/20 00:04:24;;;;;;;18.60;10.65;;;;;;;7.51;100.00;101989.53;5133077;28;20103;-81
2023/03/20 00:06:50;;;;;;;17.92;9.57;;;;;;;7.38;100.00;101972.13;5133020;28;20027;-81
2023/03/20 00:09:16;;;;;;;21.20;10.18;;;;;;;7.48;100.00;101985.16;5099317;28;20403;-81
2023/03/20 00:11:52;;;;;;;17.98;9.18;;;;;;;7.40;100.00;101965.22;5108703;28;20031;-80
2023/03/20 00:14:21;;;;;;;15.32;9.35;;;;;;;7.49;100.00;101983.47;5133043;28;20158;-81
2023/03/20 00:16:48;;;;;;;19.45;9.57;;;;;;;7.54;100.00;101984.34;5133043;27;20034;-81
2023/03/20 00:19:15;;;;;;;16.80;10.30;;;;;;;7.53;100.00;101982.63;5110608;27;20055;-81
2023/03/20 00:21:45;;;;;;;16.23;9.73;;;;;;;7.48;100.00;101979.13;5107531;27;20107;-81
2023/03/20 00:24:10;;;;;;;17.20;9.20;;;;;;;7.50;100.00;101980.00;5136296;27;20034;-81
2023/03/20 00:26:37;;;;;;;18.63;9.15;;;;;;;7.44;100.00;101973.03;5136223;27;20027;-81
2023/03/20 00:29:03;;;;;;;16.02;9.15;;;;;;;7.24;100.00;101948.66;5135865;27;20455;-81
2023/03/20 00:31:37;;;;;;;15.75;8.43;;;;;;;7.25;100.00;101965.97;5136368;27;20043;-81
2023/03/20 00:34:05;;;;;;;21.95;9.20;;;;;;;7.11;100.00;101954.63;5108137;27;20019;-81
2023/03/20 00:36:30;;;;;;;18.90;8.68;;;;;;;6.97;100.00;101960.56;5135141;27;20489;-80
2023/03/20 00:38:58;;;;;;;15.63;9.10;;;;;;;6.61;100.00;101914.41;5121750;27;20027;-81
2023/03/20 00:41:38;;;;;;;18.23;9.10;;;;;;;6.52;100.00;101916.91;5136310;27;20046;-81
2023/03/20 00:44:14;;;;;;;20.90;8.88;;;;;;;6.57;100.00;101931.66;5135174;27;20462;-81
2023/03/20 00:46:39;;;;;;;16.05;8.82;;;;;;;6.49;100.00;101935.00;5136122;27;20019;-81
2023/03/20 00:49:05;;;;;;;16.80;9.48;;;;;;;6.41;100.00;101921.97;5135776;27;20034;-80
2023/03/20 00:51:30;;;;;;;17.70;8.85;;;;;;;6.44;100.00;101931.47;5135243;27;20056;-81
2023/03/20 00:53:56;;;;;;;15.32;8.73;;;;;;;6.36;100.00;101939.19;5121501;27;20390;-81
2023/03/20 00:56:34;;;;;;;19.08;9.38;;;;;;;6.29;100.00;101955.50;5135869;27;20030;-81
2023/03/20 00:59:01;;;;;;;16.70;9.38;;;;;;;6.21;100.00;101955.44;5134820;27;20019;-81
2023/03/20 01:01:28;;;;;;;20.85;10.23;;;;;;;6.15;100.00;101960.53;5135637;27;20370;-81
2023/03/20 01:03:54;;;;;;;20.83;9.73;;;;;;;6.12;100.00;101970.84;5135121;27;20022;-81
2023/03/20 01:06:19;;;;;;;23.00;11.10;;;;;;;6.05;100.00;101969.03;5135860;27;20076;-81
2023/03/20 01:08:45;;;;;;;22.58;11.20;;;;;;;6.03;100.00;101981.06;5135501;27;20019;-80
2023/03/20 01:11:12;;;;;;;22.65;11.40;;;;;;;5.85;100.00;101969.59;5134679;27;20466;-81
2023/03/20 01:13:39;;;;;;;21.38;11.13;;;;;;;5.87;100.00;101998.94;5115296;27;20035;-81
2023/03/20 01:16:05;;;;;;;22.92;11.50;;;;;;;5.81;100.00;101988.47;5127708;27;20079;-81
2023/03/20 01:18:31;;;;;;;20.13;11.20;;;;;;;5.79;100.00;101991.91;5134537;27;20070;-81
2023/03/20 01:20:56;;;;;;;22.88;11.55;;;;;;;5.71;100.00;101972.81;5132534;27;20058;-80
2023/03/20 01:23:21;;;;;;;23.85;11.05;;;;;;;5.76;100.00;101966.00;5135506;27;20091;-80
2023/03/20 01:25:48;;;;;;;26.55;11.57;;;;;;;5.67;100.00;101951.19;5134200;27;20027;-80
2023/03/20 01:28:19;;;;;;;22.50;11.23;;;;;;;5.74;100.00;101960.78;5133754;27;20030;-80
2023/03/20 01:30:45;;;;;;;25.40;12.27;;;;;;;5.65;100.00;101958.06;5094277;28;20028;-80
2023/03/20 01:33:16;;;;;;;26.38;12.75;;;;;;;5.62;100.00;101970.94;5119980;27;20034;-80
2023/03/20 01:35:42;;;;;;;24.85;11.57;;;;;;;5.60;100.00;101972.66;5117412;27;20047;-80
2023/03/20 01:38:23;;;;;;;22.67;11.40;;;;;;;5.61;100.00;101971.81;5114086;28;20092;-80
2023/03/20 01:40:48;;;;;;;24.45;12.30;;;;;;;5.59;100.00;101973.47;5113441;28;20031;-80
2023/03/20 01:43:18;;;;;;;22.10;11.95;;;;;;;5.39;100.00;101945.63;5114055;28;20035;-80
2023/03/20 01:46:00;;;;;;;24.13;12.48;;;;;;;5.49;100.00;101969.88;5114035;28;20063;-80
2023/03/20 01:48:50;;;;;;;24.92;11.90;;;;;;;5.49;100.00;101964.72;5099731;28;20024;-80
2023/03/20 01:51:16;;;;;;;26.92;12.15;;;;;;;5.50;100.00;101973.38;5062943;28;20039;-80
2023/03/20 01:53:44;;;;;;;25.70;12.27;;;;;;;5.34;100.00;101939.50;5113040;28;20378;-80
2023/03/20 01:56:13;;;;;;;24.55;11.77;;;;;;;5.48;100.00;101960.41;5114279;28;20024;-80
2023/03/20 01:58:44;;;;;;;24.85;13.15;;;;;;;5.44;100.00;101970.69;5108771;28;20028;-80
2023/03/20 02:01:12;;;;;;;21.80;11.63;;;;;;;5.41;100.00;101963.75;5104759;28;20050;-81
2023/03/20 02:03:39;;;;;;;25.40;12.10;;;;;;;5.24;100.00;101940.22;5113930;28;20023;-80
2023/03/20 02:06:06;;;;;;;22.65;12.63;;;;;;;5.43;100.00;101968.91;5114327;28;20387;-80
2023/03/20 02:08:40;;;;;;;27.00;12.95;;;;;;;5.34;100.00;101951.56;5112819;28;20020;-80
2023/03/20 02:11:06;;;;;;;22.13;12.50;;;;;;;5.39;100.00;101968.91;5114286;28;20485;-80
2023/03/20 02:13:32;;;;;;;27.85;13.32;;;;;;;5.23;100.00;101964.34;5113291;28;20102;-80
2023/03/20 02:15:57;;;;;;;24.63;13.98;;;;;;;5.28;100.00;101983.34;5113255;28;20031;-80
2023/03/20 02:18:23;;;;;;;23.88;13.43;;;;;;;5.25;100.00;101985.88;5113603;28;20156;-80
2023/03/20 02:20:51;;;;;;;27.08;13.82;;;;;;;5.26;100.00;101987.63;5113397;28;20366;-80
2023/03/20 02:23:47;;;;;;;26.35;13.63;;;;;;;5.06;100.00;101947.66;5112943;28;20080;-80
2023/03/20 02:26:38;;;;;;;27.27;13.57;;;;;;;5.21;100.00;101981.53;5113449;28;20478;-80
2023/03/20 02:29:25;;;;;;;24.23;12.75;;;;;;;5.22;100.00;101996.19;5098116;28;20035;-80
2023/03/20 02:32:26;;;;;;;27.23;14.65;;;;;;;5.20;100.00;101995.31;5113415;28;20093;-80
2023/03/20 02:35:24;;;;;;;26.48;14.52;;;;;;;5.08;100.00;101967.50;5113044;28;20382;-80
2023/03/20 02:38:08;;;;;;;27.77;14.70;;;;;;;5.26;100.00;101979.88;5108161;28;20035;-80
2023/03/20 02:40:57;;;;;;;30.60;15.18;;;;;;;5.30;100.00;101965.31;5106185;28;20028;-80
2023/03/20 02:43:44;;;;;;;28.85;14.35;;;;;;;5.33;100.00;101966.22;5101214;28;20035;-80
2023/03/20 02:47:00;;;;;;;28.65;15.25;;;;;;;5.24;100.00;101953.13;5113359;28;20042;-80
2023/03/20 02:50:02;;;;;;;26.90;15.13;;;;;;;5.35;100.00;101954.16;5061823;28;20468;-80
2023/03/20 02:52:49;;;;;;;28.33;14.85;;;;;;;5.32;100.00;101953.25;5105516;28;20027;-80
2023/03/20 02:55:33;;;;;;;27.00;15.00;;;;;;;5.23;100.00;101941.06;5100252;28;20490;-80
2023/03/20 02:58:14;;;;;;;28.95;15.10;;;;;;;5.15;100.00;101933.16;5112078;28;20378;-80
2023/03/20 03:01:00;;;;;;;31.10;14.88;;;;;;;5.20;100.00;101959.09;5113267;28;20059;-80
2023/03/20 03:03:33;;;;;;;30.55;15.98;;;;;;;5.10;100.00;101941.69;5112435;28;20035;-80
2023/03/20 03:08:37;;;;;;;28.20;14.38;;;;;;;4.73;100.00;101886.81;5050415;28;20049;-80
2023/03/20 03:11:09;;;;;;;29.45;15.27;;;;;;;4.62;100.00;101868.53;5051781;28;20083;-80
2023/03/20 03:16:37;;;;;;;30.33;14.65;;;;;;;4.61;100.00;101845.25;5051844;28;20040;-80
2023/03/20 03:19:13;;;;;;;28.42;14.73;;;;;;;5.05;100.00;101912.31;5051624;28;20048;-80
2023/03/20 03:21:40;;;;;;;28.25;14.68;;;;;;;5.15;100.00;101921.97;5046828;28;20025;-80
2023/03/20 03:24:20;;;;;;;27.80;14.77;;;;;;;5.15;100.00;101919.38;5052605;28;20072;-80
2023/03/20 03:26:45;;;;;;;29.27;14.98;;;;;;;5.07;100.00;101906.34;5052351;28;20106;-80
2023/03/20 03:29:16;;;;;;;27.67;14.88;;;;;;;5.10;100.00;101908.97;5052554;28;20461;-80
2023/03/20 03:31:43;;;;;;;27.58;14.50;;;;;;;5.14;100.00;101920.22;5051304;28;20962;-80
2023/03/20 03:34:13;;;;;;;25.92;14.27;;;;;;;5.02;100.00;101904.50;5052427;28;20079;-80
2023/03/20 03:37:02;;;;;;;25.70;14.45;;;;;;;5.14;100.00;101922.81;5051996;28;20490;-80
2023/03/20 03:39:40;;;;;;;25.15;13.77;;;;;;;5.17;100.00;101925.44;5051252;28;20380;-80
2023/03/20 03:42:26;;;;;;;27.08;14.43;;;;;;;5.12;100.00;101914.16;5052274;28;20033;-80
2023/03/20 03:45:00;;;;;;;23.65;14.10;;;;;;;5.16;100.00;101906.47;5051803;28;20020;-80
2023/03/20 03:47:31;;;;;;;26.70;13.52;;;;;;;5.20;100.00;101914.25;5051321;28;20040;-80
2023/03/20 03:50:02;;;;;;;27.70;14.27;;;;;;;5.06;100.00;101895.97;5052009;28;20096;-80
2023/03/20 03:52:30;;;;;;;25.98;14.00;;;;;;;5.03;100.00;101893.31;5053164;28;20032;-80
2023/03/20 03:55:07;;;;;;;28.00;14.27;;;;;;;5.10;100.00;101906.38;5056059;28;20017;-80
2023/03/20 03:57:41;;;;;;;31.55;14.70;;;;;;;4.90;100.00;101882.81;5055363;28;20053;-80
2023/03/20 04:00:08;;;;;;;;;;;;;;;5.05;100.00;101905.44;5055683;28;20082;-80
2023/03/20 04:02:33;;;;;;;24.33;13.15;;;;;;;4.87;100.00;101877.59;5055341;28;20380;-80
2023/03/20 04:05:02;;;;;;;27.02;13.90;;;;;;;4.99;100.00;101907.03;5055697;28;20025;-80
2023/03/20 04:07:28;;;;;;;25.65;13.05;;;;;;;4.96;100.00;101896.66;5054488;28;20053;-80
2023/03/20 04:09:53;;;;;;;25.08;13.45;;;;;;;4.94;100.00;101894.06;5055374;28;20028;-80
2023/03/20 04:12:39;;;;;;;24.13;13.75;;;;;;;4.97;100.00;101898.38;5055722;28;20472;-80
2023/03/20 04:15:05;;;;;;;22.95;12.63;;;;;;;4.77;100.00;101874.81;5054765;28;20056;-80
2023/03/20 04:17:31;;;;;;;26.33;12.77;;;;;;;4.90;100.00;101897.41;5055210;28;20029;-80
2023/03/20 04:19:57;;;;;;;25.63;13.52;;;;;;;4.88;100.00;101893.97;5055413;28;20377;-80
2023/03/20 04:22:22;;;;;;;25.98;12.90;;;;;;;4.87;100.00;101894.78;5054819;28;20108;-80
2023/03/20 04:24:47;;;;;;;24.20;13.65;;;;;;;4.70;100.00;101863.50;5055389;28;20453;-80
2023/03/20 04:27:13;;;;;;;29.00;13.75;;;;;;;4.86;100.00;101888.75;5055182;28;20457;-80
2023/03/20 04:29:39;;;;;;;24.67;13.48;;;;;;;4.86;100.00;101896.50;5054325;28;20052;-80
2023/03/20 04:32:05;;;;;;;26.83;13.65;;;;;;;4.69;100.00;101869.50;5055251;28;20036;-81
2023/03/20 04:34:30;;;;;;;28.25;14.38;;;;;;;4.78;100.00;101892.94;5055058;28;20384;-80
2023/03/20 04:36:56;;;;;;;25.20;13.88;;;;;;;4.77;100.00;101898.91;5053979;28;20021;-80
2023/03/20 04:39:21;;;;;;;26.77;13.43;;;;;;;4.78;100.00;101892.94;5055244;28;20017;-80
2023/03/20 04:41:47;;;;;;;25.92;13.23;;;;;;;4.79;100.00;101888.63;5053997;28;20488;-80
2023/03/20 04:44:12;;;;;;;31.80;14.38;;;;;;;4.75;100.00;101879.09;5054627;28;20036;-80
2023/03/20 04:46:37;;;;;;;26.77;14.73;;;;;;;4.76;100.00;101888.56;5054846;28;20128;-80
2023/03/20 04:49:03;;;;;;;25.95;13.70;;;;;;;4.80;100.00;101888.63;5054005;28;20531;-80
2023/03/20 04:51:28;;;;;;;27.23;13.73;;;;;;;4.82;100.00;101879.22;5054301;28;20029;-80
2023/03/20 04:53:54;;;;;;;27.17;13.45;;;;;;;4.78;100.00;101858.47;5055053;28;20036;-80
2023/03/20 04:56:19;;;;;;;27.13;14.10;;;;;;;4.85;100.00;101873.22;5054033;28;20021;-80
2023/03/20 04:58:44;;;;;;;25.83;12.70;;;;;;;4.87;100.00;101875.00;5054738;28;20033;-80
2023/03/20 05:01:10;;;;;;;25.65;13.57;;;;;;;4.86;100.00;101878.41;5054430;28;20453;-79
2023/03/20 05:03:35;;;;;;;26.80;13.43;;;;;;;4.85;100.00;101871.50;5053781;28;20017;-80
2023/03/20 05:06:00;;;;;;;23.38;13.18;;;;;;;4.88;100.00;101881.91;5054934;28;20039;-80
2023/03/20 05:08:26;;;;;;;29.15;14.63;;;;;;;4.90;100.00;101881.91;5054143;28;20496;-80
2023/03/20 05:10:51;;;;;;;26.25;14.02;;;;;;;4.91;100.00;101879.38;5053364;28;20391;-80
2023/03/20 05:13:17;;;;;;;26.95;12.95;;;;;;;4.93;100.00;101887.13;5054351;28;20029;-80
2023/03/20 05:15:42;;;;;;;23.83;13.40;;;;;;;4.93;100.00;101875.06;5053949;28;20025;-80
2023/03/20 05:18:08;;;;;;;23.55;12.88;;;;;;;4.88;100.00;101861.22;5053719;28;20045;-80
2023/03/20 05:20:35;;;;;;;22.08;13.40;;;;;;;4.97;100.00;101875.13;5053956;28;20105;-80
2023/03/20 05:23:00;;;;;;;26.50;12.82;;;;;;;4.98;100.00;101869.13;5054118;28;20025;-80
2023/03/20 05:25:25;;;;;;;25.48;13.10;;;;;;;4.97;100.00;101863.09;5053430;28;20028;-80
2023/03/20 05:27:51;;;;;;;25.33;12.90;;;;;;;4.88;100.00;101845.72;5053951;28;20476;-80
2023/03/20 05:30:16;;;;;;;26.58;12.35;;;;;;;5.02;100.00;101864.03;5053948;28;20036;-80
2023/03/20 05:32:42;;;;;;;25.75;12.38;;;;;;;5.03;100.00;101865.75;5053424;28;20025;-80
2023/03/20 05:35:08;;;;;;;24.95;11.38;;;;;;;5.03;100.00;101867.47;5054334;28;20037;-80
2023/03/20 05:37:33;;;;;;;29.70;13.05;;;;;;;4.90;100.00;101851.81;5067420;28;20068;-80
2023/03/20 05:39:59;;;;;;;23.75;11.95;;;;;;;4.92;100.00;101852.69;5053271;28;20033;-80
2023/03/20 05:42:24;;;;;;;27.23;12.35;;;;;;;4.91;100.00;101848.34;5053759;28;20104;-80
2023/03/20 05:44:50;;;;;;;22.80;11.50;;;;;;;5.03;100.00;101870.94;5053603;28;20035;-80
2023/03/20 05:47:15;;;;;;;23.77;12.23;;;;;;;5.01;100.00;101864.88;5052723;28;20017;-80
2023/03/20 05:49:40;;;;;;;25.27;11.43;;;;;;;5.06;100.00;101870.09;5053444;28;20028;-80
2023/03/20 07:39:32;;;;;;;20.13;9.77;;;;;;;6.85;100.00;101972.53;5111075;28;20051;-80
2023/03/20 07:42:51;;;;;;;17.48;8.73;;;;;;;6.92;100.00;101966.53;5117003;28;20111;-80
2023/03/20 08:50:50;;;;;;;;;;;;;;;;;;;;;
2023/03/20 08:53:28;;;;;;;16.75;8.23;;;;;;;7.56;100.00;101935.06;5008767;28;20046;-80
2023/03/20 09:33:28;;;;;;;21.55;9.13;;;;;;;5.72;100.00;101920.22;4931980;29;20090;-84
2023/03/20 09:36:11;;;;;;;24.70;9.50;;;;;;;5.79;100.00;101942.75;4934541;29;20118;-85
2023/03/20 09:38:48;;;;;;;23.83;10.60;;;;;;;5.67;100.00;101908.94;4945890;28;20500;-84
2023/03/20 09:41:38;;;;;;;25.58;10.55;;;;;;;5.79;100.00;101904.81;4972943;28;20038;-84
2023/03/20 09:44:14;;;;;;;23.30;10.20;;;;;;;6.39;100.00;101987.56;4973112;28;20031;-84
2023/03/20 09:47:02;;;;;;;25.67;10.75;;;;;;;6.48;100.00;101979.91;4972581;28;20038;-84
2023/03/20 09:49:42;;;;;;;25.50;11.07;;;;;;;6.47;100.00;101988.50;4971749;28;20042;-84
2023/03/20 09:52:36;;;;;;;28.80;11.10;;;;;;;6.37;100.00;101960.75;4972210;28;20042;-84
2023/03/20 09:55:06;;;;;;;28.55;10.85;;;;;;;6.57;100.00;101980.00;5053761;28;20021;-84
2023/03/20 09:57:41;;;;;;;25.83;10.38;;;;;;;6.43;100.00;101955.66;5053513;28;20143;-84
2023/03/20 10:00:12;;;;;;;19.15;9.27;;;;;;;6.47;100.00;101975.56;5053059;28;20017;-84
2023/03/20 10:02:47;;;;;;;26.30;10.13;;;;;;;6.55;100.00;101972.22;5053448;28;20052;-84
2023/03/20 10:05:18;;;;;;;20.85;9.27;;;;;;;6.52;100.00;101977.34;5052865;28;20535;-84
2023/03/20 10:07:43;;;;;;;28.55;10.35;;;;;;;6.52;100.00;101971.31;5053366;28;20140;-83
2023/03/20 10:10:13;;;;;;;23.73;9.20;;;;;;;6.60;100.00;101980.03;5053317;28;20064;-84
2023/03/20 10:13:03;;;;;;;25.20;10.25;;;;;;;6.57;100.00;101964.44;5042014;28;20022;-84
2023/03/20 10:15:42;;;;;;;22.77;9.38;;;;;;;6.57;100.00;101973.09;5046959;28;20113;-85
2023/03/20 10:18:19;;;;;;;23.08;9.25;;;;;;;6.49;100.00;101969.56;5047161;28;20025;-85
2023/03/20 10:21:02;;;;;;;20.58;9.80;;;;;;;6.63;100.00;101972.28;5050705;28;20033;-85
2023/03/20 10:23:35;;;;;;;19.45;9.18;;;;;;;6.66;100.00;101964.53;5052927;28;20028;-85
2023/03/20 10:26:11;;;;;;;17.80;8.20;;;;;;;6.57;100.00;101943.72;5053133;28;20514;-85
2023/03/20 10:28:50;;;;;;;22.30;9.77;;;;;;;6.73;100.00;101958.56;5052067;28;20087;-84
2023/03/20 10:31:42;;;;;;;23.88;10.43;;;;;;;7.00;100.00;101958.00;5053182;28;20024;-85
2023/03/20 10:34:23;;;;;;;22.95;9.85;;;;;;;7.15;100.00;101957.22;5051957;28;20025;-85
2023/03/20 10:36:54;;;;;;;23.13;9.65;;;;;;;7.33;100.00;101953.94;5052879;28;20047;-85
2023/03/20 10:39:54;;;;;;;22.67;9.95;;;;;;;7.43;100.00;101954.88;5039573;28;20024;-84
2023/03/20 10:42:26;;;;;;;20.17;8.75;;;;;;;7.35;100.00;101962.59;5052265;28;20025;-84
2023/03/20 10:45:00;;;;;;;21.05;9.43;;;;;;;7.33;100.00;101948.75;5038429;28;20028;-84
2023/03/20 10:47:29;;;;;;;21.65;9.25;;;;;;;7.15;100.00;101933.03;5052191;28;20037;-83
2023/03/20 10:50:00;;;;;;;29.65;10.25;;;;;;;7.21;100.00;101941.72;5052742;28;20017;-84
2023/03/20 10:52:29;;;;;;;21.33;10.05;;;;;;;7.36;100.00;101958.28;5052476;28;20555;-83
2023/03/20 10:54:59;;;;;;;25.55;9.73;;;;;;;7.32;100.00;101940.94;5037944;28;20036;-83
2023/03/20 10:57:28;;;;;;;24.27;9.27;;;;;;;7.35;100.00;101951.34;5052378;28;20469;-83
2023/03/20 10:59:56;;;;;;;25.13;9.57;;;;;;;7.44;100.00;101954.00;5052590;28;20017;-83
2023/03/20 11:02:26;;;;;;;16.20;8.52;;;;;;;7.39;100.00;101956.59;5072026;22;20052;-83
2023/03/20 11:04:52;;;;;;;18.65;9.15;;;;;;;7.53;100.00;101946.28;5089865;28;20040;-83
2023/03/20 11:07:22;;;;;;;22.38;8.90;;;;;;;7.46;100.00;101924.63;5081158;28;20154;-82
2023/03/20 11:10:06;;;;;;;19.42;8.90;;;;;;;7.60;100.00;101953.25;5091502;28;20088;-83
2023/03/20 11:12:47;;;;;;;;;;;;;;;7.55;100.00;101943.69;5092656;28;20429;-83
2023/03/20 11:15:33;;;;;;;18.85;8.75;;;;;;;7.56;100.00;101940.25;5088599;28;19916;-83
2023/03/20 11:18:04;;;;;;;19.90;7.90;;;;;;;7.51;100.00;101935.88;5084945;28;20114;-82
2023/03/20 11:20:37;;;;;;;18.83;8.20;;;;;;;7.37;100.00;101918.50;5092345;28;20051;-83
2023/03/20 11:23:04;;;;;;;16.65;7.90;;;;;;;7.34;100.00;101902.91;5092040;28;20012;-83
2023/03/20 11:25:33;;;;;;;17.98;8.15;;;;;;;7.57;100.00;101922.09;5092391;28;20348;-83
2023/03/20 11:28:37;;;;;;;16.25;6.30;;;;;;;7.64;100.00;101916.06;5081640;28;20459;-82
2023/03/20 11:31:17;;;;;;;16.58;7.80;;;;;;;7.59;100.00;101894.44;5079331;28;20085;-82
2023/03/20 11:33:51;;;;;;;16.20;6.80;;;;;;;7.70;100.00;101910.91;5092262;28;20020;-82
2023/03/20 11:36:21;;;;;;;15.95;6.75;;;;;;;7.76;100.00;101901.44;5083214;28;20526;-83
2023/03/20 11:38:49;;;;;;;19.48;7.15;;;;;;;7.78;100.00;101897.09;5087125;28;20059;-82
2023/03/20 11:41:23;;;;;;;15.73;6.72;;;;;;;7.73;100.00;101892.78;5092700;28;20022;-83
2023/03/20 11:43:48;;;;;;;13.85;6.68;;;;;;;7.84;100.00;101887.63;5091410;28;20028;-82
2023/03/20 11:46:14;;;;;;;17.25;7.13;;;;;;;7.80;100.00;101877.22;5092266;28;20024;-83
2023/03/20 11:48:43;;;;;;;23.40;7.43;;;;;;;7.89;100.00;101885.06;5092137;28;20471;-82
2023/03/20 11:51:13;;;;;;;23.30;7.75;;;;;;;7.84;100.00;101890.22;5091731;28;20020;-82
2023/03/20 11:53:40;;;;;;;15.25;6.97;;;;;;;7.91;100.00;101897.19;5092248;28;20028;-82
2023/03/20 11:56:06;;;;;;;16.17;7.00;;;;;;;7.88;100.00;101894.59;5092285;28;20467;-82
2023/03/20 11:58:33;;;;;;;16.08;7.18;;;;;;;7.79;100.00;101894.53;5091358;28;20035;-82
2023/03/20 12:01:01;;;;;;;17.67;7.28;;;;;;;7.67;100.00;101887.53;5092496;28;20065;-82
2023/03/20 12:03:43;;;;;;;18.50;7.60;;;;;;;7.84;100.00;101890.22;5087095;28;20044;-82
2023/03/20 12:06:26;;;;;;;18.70;7.28;;;;;;;8.01;100.00;101897.22;5084911;28;20020;-82
2023/03/20 12:09:03;;;;;;;18.90;7.10;;;;;;;8.02;100.00;101885.97;5092360;28;20047;-82
2023/03/20 12:12:02;;;;;;;19.05;8.23;;;;;;;8.25;100.00;101896.44;5077883;28;20064;-82
2023/03/20 12:14:42;;;;;;;20.83;7.25;;;;;;;8.45;100.00;101892.19;5084132;28;20028;-82
2023/03/20 12:17:30;;;;;;;19.38;7.45;;;;;;;8.55;100.00;101885.28;5095379;28;20099;-82
2023/03/20 12:20:04;;;;;;;15.88;7.55;;;;;;;8.66;100.00;101883.56;5094804;28;20050;-82
2023/03/20 12:22:35;;;;;;;18.42;8.27;;;;;;;8.83;100.00;101886.19;5095362;28;20048;-83
2023/03/20 12:25:24;;;;;;;21.38;8.93;;;;;;;8.80;100.00;101881.00;5095639;28;20017;-81
2023/03/20 12:28:01;;;;;;;15.02;7.55;;;;;;;8.89;100.00;101875.75;5094732;28;20467;-82
2023/03/20 12:30:48;;;;;;;15.88;7.78;;;;;;;8.80;100.00;101878.38;5092243;28;20387;-82
2023/03/20 12:33:33;;;;;;;18.08;7.60;;;;;;;8.59;100.00;101872.28;5086734;28;20523;-82
2023/03/20 12:36:00;;;;;;;16.27;7.55;;;;;;;8.43;100.00;101858.41;5095575;28;20020;-82
2023/03/20 12:38:31;;;;;;;19.25;7.72;;;;;;;8.35;100.00;101854.03;5095231;28;20498;-83
2023/03/20 12:41:11;;;;;;;20.98;8.30;;;;;;;8.28;100.00;101847.97;5094384;28;20467;-82
2023/03/20 12:43:45;;;;;;;22.20;7.68;;;;;;;8.32;100.00;101867.03;5095309;28;20055;-83
2023/03/20 12:46:39;;;;;;;16.27;7.57;;;;;;;8.32;100.00;101856.63;5095153;28;20467;-82
2023/03/20 12:49:40;;;;;;;19.90;8.02;;;;;;;8.15;100.00;101851.41;5094491;28;20049;-83
2023/03/20 12:52:28;;;;;;;22.02;7.95;;;;;;;8.07;100.00;101851.34;5084561;28;20024;-82
2023/03/20 12:55:12;;;;;;;20.58;7.57;;;;;;;7.98;100.00;101840.97;5090101;28;20025;-82
2023/03/20 12:57:55;;;;;;;24.65;8.65;;;;;;;8.03;100.00;101849.63;5087952;28;20036;-82
2023/03/20 13:00:32;;;;;;;25.88;8.35;;;;;;;8.06;100.00;101831.44;5094958;28;20107;-82
2023/03/20 13:03:05;;;;;;;17.92;8.40;;;;;;;8.36;100.00;101842.78;5093905;28;20047;-82
2023/03/20 13:05:56;;;;;;;14.68;7.03;;;;;;;8.55;100.00;101831.56;5094358;28;20024;-82
2023/03/20 13:08:40;;;;;;;22.77;7.65;;;;;;;8.72;100.00;101831.56;5093705;28;20028;-82
2023/03/20 13:11:28;;;;;;;18.73;7.07;;;;;;;8.88;100.00;101837.63;5094730;28;20032;-82
2023/03/20 13:14:00;;;;;;;17.05;7.70;;;;;;;9.11;100.00;101840.22;5094992;28;20051;-82
2023/03/20 13:16:30;;;;;;;19.25;7.90;;;;;;;9.28;100.00;101835.84;5093867;28;20464;-82
2023/03/20 13:19:04;;;;;;;12.25;6.07;;;;;;;9.47;100.00;101830.59;5094590;28;20023;-82
2023/03/20 13:21:41;;;;;;;18.23;6.68;;;;;;;9.68;100.00;101827.94;5094336;28;20080;-82
2023/03/20 13:26:56;;;;;;;12.68;6.00;;;;;;;10.12;100.00;101825.97;5092534;28;20457;-81
2023/03/20 13:29:32;;;;;;;17.20;6.60;;;;;;;10.17;100.00;101825.06;5093607;28;20429;-82
2023/03/20 13:32:12;;;;;;;16.02;6.40;;;;;;;10.24;100.00;101812.88;5080352;28;20095;-82
2023/03/20 13:35:06;;;;;;;17.65;6.47;;;;;;;10.36;100.00;101810.19;5094225;28;20031;-82
2023/03/20 13:37:36;;;;;;;14.30;5.72;;;;;;;10.68;100.00;101811.69;5093018;28;20024;-82
2023/03/20 13:40:28;;;;;;;16.45;5.97;;;;;;;10.95;100.00;101813.16;5094312;28;20024;-82
2023/03/20 13:43:04;;;;;;;13.93;5.45;;;;;;;10.88;100.00;101814.97;5082115;28;20012;-81
2023/03/20 13:45:35;;;;;;;11.65;5.53;;;;;;;10.83;99.65;101802.88;5093502;28;20367;-82
2023/03/20 13:48:34;;;;;;;13.15;5.72;;;;;;;10.88;98.25;101809.75;5094229;28;20101;-82
2023/03/20 13:51:06;;;;;;;15.90;5.28;;;;;;;10.84;99.11;101815.88;5078675;28;20426;-82
2023/03/20 13:53:43;;;;;;;13.43;5.35;;;;;;;10.83;97.27;101802.88;5081007;28;20107;-82
2023/03/20 13:56:33;;;;;;;16.63;5.72;;;;;;;10.87;97.86;101805.44;5093717;28;20024;-82
2023/03/20 13:59:33;;;;;;;14.55;5.70;;;;;;;10.77;99.32;101804.66;5093353;28;20032;-82
2023/03/20 14:02:17;;;;;;;18.67;5.78;;;;;;;10.72;99.10;101801.19;5080245;28;20024;-82
2023/03/20 14:04:42;;;;;;;15.38;5.03;;;;;;;10.74;99.85;101809.03;5092836;28;20028;-82
2023/03/20 14:07:26;;;;;;;12.23;4.97;;;;;;;10.73;98.62;101804.69;5093937;28;20020;-82
2023/03/20 14:09:53;;;;;;;;;;;;;;;10.65;100.00;101793.47;5093931;28;20039;-82
2023/03/20 14:12:22;;;;;;;13.30;5.40;;;;;;;10.46;98.84;101796.22;5092832;28;19912;-82
2023/03/20 14:14:59;;;;;;;15.13;4.93;;;;;;;10.35;97.35;101794.56;5079185;28;20021;-82
2023/03/20 14:17:30;;;;;;;12.13;4.68;;;;;;;10.10;100.00;101789.47;5093464;28;20059;-82
2023/03/20 14:19:56;;;;;;;10.98;5.45;;;;;;;9.88;100.00;101793.13;5092589;28;20380;-82
2023/03/20 14:22:27;;;;;;;16.52;5.20;;;;;;;9.59;100.00;101797.56;5093262;28;20065;-82
2023/03/20 14:24:59;;;;;;;14.95;6.10;;;;;;;9.13;100.00;101782.13;5079711;28;20503;-82
2023/03/20 14:27:33;;;;;;;13.05;6.20;;;;;;;8.91;100.00;101790.81;5072450;28;20055;-83
2023/03/20 14:30:30;;;;;;;15.20;6.75;;;;;;;8.67;100.00;101787.38;5073099;28;20452;-83
2023/03/20 14:33:14;;;;;;;14.38;6.07;;;;;;;8.57;100.00;101780.47;5081978;28;20024;-84
2023/03/20 14:35:43;;;;;;;16.30;6.25;;;;;;;8.52;100.00;101784.78;5092748;28;20332;-84
2023/03/20 14:38:54;;;;;;;20.23;7.00;;;;;;;8.50;100.00;101783.94;5093135;28;20036;-85
2023/03/20 14:41:56;;;;;;;18.58;6.65;;;;;;;8.45;100.00;101783.06;5077632;28;20111;-84
2023/03/20 14:44:33;;;;;;;15.82;7.25;;;;;;;8.42;100.00;101776.13;5092492;28;20106;-83
2023/03/20 14:47:18;;;;;;;18.45;6.90;;;;;;;8.41;100.00;101766.59;5092395;28;20035;-83
2023/03/20 14:50:02;;;;;;;16.60;7.03;;;;;;;8.31;100.00;101761.38;5078702;28;20023;-82
2023/03/20 14:52:34;;;;;;;18.20;7.00;;;;;;;8.29;100.00;101763.09;5093199;28;20032;-83
2023/03/20 14:55:18;;;;;;;17.53;7.23;;;;;;;8.30;100.00;101763.06;5092295;28;20028;-83
2023/03/20 14:57:44;;;;;;;21.20;6.75;;;;;;;8.25;100.00;101764.81;5078819;28;20050;-83
2023/03/20 15:00:21;;;;;;;16.98;6.40;;;;;;;8.24;100.00;101764.81;5092732;28;20534;-82
2023/03/20 15:02:50;;;;;;;21.08;6.38;;;;;;;8.21;100.00;101760.50;5092276;28;20024;-83
2023/03/20 15:05:28;;;;;;;16.45;6.35;;;;;;;8.20;100.00;101754.41;5078418;28;20027;-83
2023/03/20 15:08:21;;;;;;;17.67;6.13;;;;;;;8.24;100.00;101757.91;5092085;28;20463;-83
2023/03/20 15:10:52;;;;;;;19.63;6.03;;;;;;;8.27;100.00;101755.28;5088250;28;20043;-83
2023/03/20 15:13:17;;;;;;;21.63;5.55;;;;;;;8.29;100.00;101750.09;5090996;28;20282;-82
2023/03/20 15:15:55;;;;;;;15.05;5.88;;;;;;;8.30;100.00;101737.09;5079406;28;20031;-82
2023/03/20 15:18:22;;;;;;;20.65;5.10;;;;;;;8.44;100.00;101748.41;5091250;28;20024;-82
2023/03/20 15:20:48;;;;;;;13.07;4.75;;;;;;;8.50;100.00;101757.06;5079997;28;20058;-83
2023/03/20 15:23:13;;;;;;;11.85;4.60;;;;;;;8.51;100.00;101754.47;5091937;28;20467;-83
2023/03/20 15:28:06;;;;;;;14.23;4.93;;;;;;;8.63;100.00;101754.47;5097200;22;20064;-82